Weather at Waukegan National Airport

Public forecast

Using degrees Fahrenheit for public forecast. Weather courtesy of forecast.io.

Current aviation weather report (METAR) for Waukegan National Airport

Report is more than 2 hours old.

Retrieved 2021/03/01 16:55 UTC (2 hours ago):

KUGN 011655Z 32009G17KT 290V360 10SM FEW026 M02/M09 A3023 RMK AO2 SLP250 T10171089

Closest aviation forecast (TAF) to Waukegan National Airport

Closest forecast is Kenosha Regional Airport, 10.7 nm (19.9 km) NNW. Retrieved 2021/03/01 18:22 UTC (33 minutes ago):

TAF KENW 011720Z 0118/0218 33012KT P6SM FEW035 FM012300 33007KT P6SM SKC FM020700 00000KT P6SM SKC FM021300 21007KT P6SM SKC FM021600 21013G21KT P6SM SKC